Time;durP1;ratioP1;P1;durP2;ratioP2;P2;SDS_P1;SDS_P2;PMS_P1;PMS_P2;Temp;Humidity;BMP_temperature;BMP_pressure;BME280_temperature;BME280_humidity;BME280_pressure;Samples;Min_cycle;Max_cycle;Signal;HPM_P1;HPM_P2
2022/07/28 00:08:24;;;;;;;4.50;3.20;;;;;;;14.76;66.21;98840.56;434200;1266;108359;-41
2022/07/28 00:18:32;;;;;;;6.00;3.40;;;;;;;14.65;66.32;98833.69;433948;1267;98022;-41
2022/07/28 00:28:39;;;;;;;5.70;3.30;;;;;;;14.46;66.33;98831.98;433864;1267;111136;-41
2022/07/28 00:38:47;;;;;;;6.70;2.60;;;;;;;14.29;66.54;98829.48;433865;1266;108852;-40
2022/07/28 00:48:56;;;;;;;5.90;2.70;;;;;;;14.18;66.65;98830.63;433898;1267;97867;-40
2022/07/28 00:59:02;;;;;;;;;;;;;;;14.15;66.87;98831.50;433929;1267;110998;-40
2022/07/28 01:21:00;;;;;;;9.50;3.60;;;;;;;14.26;67.23;98832.06;434088;1268;98002;-39
2022/07/28 01:31:11;;;;;;;5.60;3.50;;;;;;;14.20;67.23;98833.53;433920;1267;110946;-40
2022/07/28 01:41:16;;;;;;;10.00;3.60;;;;;;;14.15;67.28;98836.33;433704;1267;109236;-41
2022/07/28 01:51:27;;;;;;;7.60;3.90;;;;;;;14.10;67.43;98842.98;434032;1267;97879;-41
2022/07/28 02:01:37;;;;;;;11.30;3.60;;;;;;;13.88;67.65;98854.55;433627;1267;111413;-40
2022/07/28 02:11:46;;;;;;;8.90;3.20;;;;;;;13.77;67.95;98852.65;433745;1267;108840;-41
2022/07/28 02:21:55;;;;;;;13.10;3.40;;;;;;;13.74;68.40;98851.40;433938;1267;97877;-41
2022/07/28 02:32:07;;;;;;;11.70;3.60;;;;;;;13.57;68.49;98856.77;433614;1267;111117;-41
2022/07/28 02:42:37;;;;;;;6.90;4.00;;;;;;;13.50;69.11;98863.95;433814;1267;108976;-40
2022/07/28 02:52:45;;;;;;;9.20;4.30;;;;;;;13.55;69.47;98871.84;434134;1268;97966;-41
2022/07/28 03:02:53;;;;;;;12.10;4.10;;;;;;;13.36;69.46;98882.14;434226;1266;110778;-41
2022/07/28 03:13:00;;;;;;;6.60;3.90;;;;;;;12.96;69.30;98885.06;434123;1266;108792;-41
2022/07/28 03:33:14;;;;;;;7.60;4.50;;;;;;;12.95;69.88;98897.09;433999;1267;111055;-41
2022/07/28 03:43:24;;;;;;;8.10;5.00;;;;;;;13.14;70.12;98907.11;433883;1267;108752;-41
2022/07/28 04:06:10;;;;;;;7.10;4.30;;;;;;;15.33;69.06;98923.44;433919;1268;111399;-42
2022/07/28 04:16:18;;;;;;;10.70;4.70;;;;;;;17.55;67.18;98916.20;433735;1267;108804;-41
2022/07/28 04:26:28;;;;;;;10.00;4.80;;;;;;;19.10;65.67;98918.16;433787;1267;97896;-41
2022/07/28 04:37:08;;;;;;;10.50;4.10;;;;;;;20.41;63.83;98914.19;432916;1271;110382;-40
2022/07/28 04:47:15;;;;;;;4.70;3.30;;;;;;;21.52;62.37;98920.14;433151;1271;108611;-40
2022/07/28 04:57:22;;;;;;;6.60;3.80;;;;;;;22.10;60.15;98917.37;432655;1271;97894;-40
2022/07/28 05:07:31;;;;;;;5.50;3.60;;;;;;;22.40;58.46;98917.91;433779;1268;111589;-40
2022/07/28 05:17:37;;;;;;;;;;;;;;;22.80;57.37;98924.08;433923;1266;107874;-43
2022/07/28 05:51:34;;;;;;;9.90;3.60;;;;;;;22.47;53.98;98937.15;432073;1268;111559;-41
2022/07/28 06:02:02;;;;;;;7.20;3.50;;;;;;;22.71;52.57;98945.88;431568;1267;108257;-42
2022/07/28 06:12:09;;;;;;;5.30;3.40;;;;;;;22.55;51.49;98952.33;433330;1267;97885;-42
2022/07/28 06:22:17;;;;;;;3.90;2.30;;;;;;;22.69;50.70;98961.88;433467;1267;111094;-41
2022/07/28 06:32:24;;;;;;;7.50;2.20;;;;;;;22.49;48.62;98971.77;433494;1267;108878;-39
2022/07/28 06:42:31;;;;;;;4.40;2.60;;;;;;;22.63;47.70;98973.45;433286;1270;97886;-41
2022/07/28 06:52:38;;;;;;;5.80;2.40;;;;;;;23.04;46.84;98974.16;433470;1268;111029;-42
2022/07/28 07:02:46;;;;;;;5.20;1.70;;;;;;;23.19;46.58;98973.02;433635;1267;109475;-41
2022/07/28 07:12:51;;;;;;;;;;;;;;;23.68;46.27;98969.15;433470;1267;97529;-42
2022/07/28 07:22:59;;;;;;;3.70;2.40;;;;;;;23.02;43.61;98973.80;432564;1267;97891;-41
2022/07/28 07:33:06;;;;;;;5.60;1.90;;;;;;;22.88;44.29;98975.14;433909;1265;111089;-42
2022/07/28 07:43:17;;;;;;;5.70;1.40;;;;;;;23.08;43.29;98977.59;433756;1267;109134;-42
2022/07/28 08:03:30;;;;;;;7.40;1.90;;;;;;;23.24;42.92;98980.84;433410;1267;97882;-41
2022/07/28 08:13:38;;;;;;;4.30;1.50;;;;;;;23.47;42.87;98983.19;433252;1267;111079;-41
2022/07/28 08:23:44;;;;;;;;;;;;;;;24.19;42.72;98978.95;433788;1267;108829;-42
2022/07/28 08:44:02;;;;;;;1.90;1.30;;;;;;;24.22;40.99;98977.79;434244;1268;97876;-41
2022/07/28 09:04:19;;;;;;;6.30;1.70;;;;;;;24.02;40.65;98971.86;433902;1268;108852;-42
2022/07/28 09:14:27;;;;;;;4.80;1.20;;;;;;;23.32;39.95;98965.61;433942;1268;98597;-41
2022/07/28 09:24:33;;;;;;;6.90;1.90;;;;;;;23.06;40.21;98962.11;434179;1268;97767;-41
2022/07/28 09:34:45;;;;;;;4.70;1.80;;;;;;;23.65;40.70;98964.27;433920;1268;110042;-42
2022/07/28 09:45:05;;;;;;;4.20;1.40;;;;;;;24.22;40.99;98957.03;434073;1267;108779;-42
2022/07/28 09:55:28;;;;;;;;;;;;;;;24.69;40.34;98952.17;434015;1268;98206;-41
2022/07/28 10:16:13;;;;;;;3.80;2.00;;;;;;;24.13;39.23;98950.84;434088;1268;111875;-41
2022/07/28 10:26:20;;;;;;;5.60;1.30;;;;;;;24.02;39.70;98939.67;433656;1267;108848;-41
2022/07/28 10:36:31;;;;;;;1.90;1.30;;;;;;;24.10;39.19;98929.26;434064;1267;107634;-41
2022/07/28 10:46:39;;;;;;;4.10;1.30;;;;;;;23.85;39.70;98925.05;433889;1268;97458;-41
2022/07/28 10:56:56;;;;;;;2.70;1.20;;;;;;;24.05;39.77;98922.03;433883;1268;111181;-41
2022/07/28 11:07:11;;;;;;;5.20;1.40;;;;;;;24.30;39.48;98920.33;433688;1267;108864;-42
2022/07/28 11:17:16;;;;;;;3.10;1.60;;;;;;;24.03;38.68;98923.13;434148;1268;98159;-41
2022/07/28 11:28:02;;;;;;;6.40;1.50;;;;;;;24.33;38.88;98919.20;433936;1267;98252;-40
2022/07/28 11:38:14;;;;;;;4.00;1.60;;;;;;;25.06;39.16;98916.70;433754;1266;111046;-41
2022/07/28 11:58:27;;;;;;;4.00;1.40;;;;;;;26.52;37.85;98914.48;433847;1268;97903;-41
2022/07/28 12:08:50;;;;;;;4.80;1.50;;;;;;;26.67;37.47;98904.33;433998;1267;111293;-41
2022/07/28 12:18:59;;;;;;;2.40;1.20;;;;;;;26.38;37.35;98898.67;434043;1266;108962;-41
2022/07/28 12:29:10;;;;;;;2.40;1.40;;;;;;;26.67;37.41;98898.34;434107;1268;108805;-41
2022/07/28 12:49:23;;;;;;;1.70;1.30;;;;;;;26.00;36.28;98875.70;434271;1268;108111;-40
2022/07/28 12:59:32;;;;;;;3.30;1.50;;;;;;;25.74;35.91;98881.27;433745;1268;108761;-40
2022/07/28 13:09:38;;;;;;;4.40;1.10;;;;;;;25.18;35.34;98881.68;433815;1268;97509;-40
2022/07/28 13:19:46;;;;;;;2.20;1.00;;;;;;;24.94;35.34;98879.52;433615;1270;110916;-40
2022/07/28 13:29:53;;;;;;;4.90;1.30;;;;;;;24.75;35.85;98882.63;433537;1268;106477;-39
2022/07/28 13:50:03;;;;;;;5.70;1.10;;;;;;;24.47;36.71;98882.85;432906;1271;97593;-40
2022/07/28 14:00:13;;;;;;;2.70;0.90;;;;;;;24.77;36.74;98875.35;433844;1268;97903;-40
2022/07/28 14:10:22;;;;;;;1.70;1.30;;;;;;;24.89;36.44;98869.86;434166;1268;108895;-40
2022/07/28 14:20:33;;;;;;;13.10;2.10;;;;;;;25.14;36.79;98865.48;434075;1268;97555;-40
2022/07/28 14:30:41;;;;;;;2.60;1.10;;;;;;;25.25;36.53;98853.70;433850;1268;111141;-42
2022/07/28 14:40:49;;;;;;;4.00;1.10;;;;;;;25.10;36.54;98851.66;432971;1270;109110;-40
2022/07/28 14:50:57;;;;;;;2.30;1.30;;;;;;;25.08;35.94;98849.40;433714;1268;108256;-41
2022/07/28 15:01:04;;;;;;;4.40;1.60;;;;;;;24.94;35.95;98840.66;433920;1268;97523;-40
2022/07/28 15:11:13;;;;;;;3.40;1.30;;;;;;;24.92;36.08;98832.92;433898;1268;110392;-40
2022/07/28 15:21:20;;;;;;;7.40;1.60;;;;;;;24.81;35.96;98829.33;434016;1268;108528;-40
2022/07/28 15:31:29;;;;;;;1.90;1.10;;;;;;;24.75;35.96;98825.59;434089;1268;98666;-40
2022/07/28 15:41:36;;;;;;;3.70;1.50;;;;;;;24.60;35.46;98821.65;433792;1267;97490;-40
2022/07/28 15:51:44;;;;;;;2.50;1.10;;;;;;;24.46;35.45;98822.77;433930;1268;110525;-41
2022/07/28 16:01:51;;;;;;;4.00;1.30;;;;;;;24.36;35.09;98818.75;434113;1268;108689;-41
2022/07/28 16:11:59;;;;;;;3.60;1.30;;;;;;;24.17;34.92;98815.55;434113;1268;97885;-40
2022/07/28 16:22:06;;;;;;;3.30;1.60;;;;;;;24.10;35.11;98815.84;433990;1268;97925;-40
2022/07/28 16:32:12;;;;;;;;;;;;;;;23.95;34.82;98814.86;434283;1268;110566;-40
2022/07/28 16:42:19;;;;;;;7.70;1.50;;;;;;;23.84;34.89;98808.09;433978;1268;109642;-42
2022/07/28 17:02:32;;;;;;;4.70;1.40;;;;;;;23.59;34.71;98808.55;434144;1268;97878;-41
2022/07/28 17:12:40;;;;;;;5.20;1.00;;;;;;;23.41;34.48;98810.22;433989;1268;111268;-40
2022/07/28 17:22:46;;;;;;;1.90;1.10;;;;;;;23.26;34.62;98809.66;433841;1268;109741;-40
2022/07/28 17:32:54;;;;;;;1.70;1.10;;;;;;;23.12;34.98;98812.95;433841;1268;369379;-41
2022/07/28 17:43:01;;;;;;;2.30;1.40;;;;;;;22.94;35.26;98818.46;433017;1270;111128;-40
2022/07/28 17:53:08;;;;;;;2.90;1.10;;;;;;;22.68;35.81;98825.98;432998;1269;107796;-40
2022/07/28 18:03:17;;;;;;;2.40;1.20;;;;;;;22.32;36.32;98828.45;433674;1267;98228;-39
2022/07/28 18:13:26;;;;;;;2.50;1.20;;;;;;;21.93;36.98;98830.89;433962;1267;110104;-39
2022/07/28 18:23:33;;;;;;;5.80;2.10;;;;;;;21.52;37.32;98829.80;434150;1268;109686;-40
2022/07/28 18:33:40;;;;;;;3.40;1.50;;;;;;;21.14;37.84;98829.14;434202;1268;97883;-40
2022/07/28 18:43:47;;;;;;;8.00;1.80;;;;;;;20.62;39.07;98842.21;433969;1268;111126;-40
2022/07/28 18:53:55;;;;;;;4.80;1.70;;;;;;;20.03;40.24;98851.95;433948;1268;108893;-41
2022/07/28 19:04:02;;;;;;;3.60;1.30;;;;;;;19.42;41.27;98855.45;434012;1268;97884;-41
2022/07/28 19:14:10;;;;;;;7.20;2.50;;;;;;;18.93;42.23;98859.28;434127;1267;97462;-40
2022/07/28 19:24:18;;;;;;;13.00;5.30;;;;;;;18.40;43.31;98872.73;433551;1269;111230;-41
2022/07/28 19:34:26;;;;;;;8.10;4.50;;;;;;;18.01;44.34;98877.26;434149;1268;107457;-40
2022/07/28 19:44:33;;;;;;;11.70;5.10;;;;;;;17.73;45.65;98883.08;433895;1267;97877;-41
2022/07/28 19:54:40;;;;;;;8.90;5.00;;;;;;;17.44;46.31;98889.72;433912;1268;98245;-40
2022/07/28 20:04:47;;;;;;;17.10;4.20;;;;;;;17.22;47.05;98894.95;433322;1270;111104;-39
2022/07/28 20:14:54;;;;;;;9.90;4.20;;;;;;;16.99;47.89;98900.90;433710;1269;109066;-40
2022/07/28 20:25:02;;;;;;;14.50;5.70;;;;;;;16.77;48.42;98904.70;433625;1269;108771;-40
2022/07/28 20:35:09;;;;;;;13.50;5.90;;;;;;;16.55;49.10;98905.66;433525;1269;98471;-41
2022/07/28 20:45:16;;;;;;;9.40;4.40;;;;;;;16.27;49.84;98902.98;433877;1270;111079;-41
2022/07/28 20:55:25;;;;;;;13.80;5.00;;;;;;;15.97;50.42;98910.62;434107;1267;108770;-41
2022/07/28 21:05:32;;;;;;;10.70;4.60;;;;;;;15.75;51.23;98916.55;434061;1268;109230;-40
2022/07/28 21:15:42;;;;;;;11.70;5.30;;;;;;;15.62;52.07;98918.27;434127;1268;97894;-40
2022/07/28 21:25:50;;;;;;;8.50;3.80;;;;;;;15.64;52.73;98921.91;433913;1267;108187;-40
2022/07/28 21:35:57;;;;;;;7.30;2.80;;;;;;;16.05;52.39;98923.61;433988;1268;109603;-40
2022/07/28 21:46:04;;;;;;;8.20;2.90;;;;;;;16.50;51.95;98936.08;433832;1268;97609;-41
2022/07/28 21:56:12;;;;;;;6.60;3.20;;;;;;;16.93;51.10;98940.31;433945;1268;110943;-41
2022/07/28 22:06:19;;;;;;;6.60;3.00;;;;;;;17.17;50.61;98938.55;433888;1266;108830;-41
2022/07/28 22:16:26;;;;;;;4.50;2.40;;;;;;;17.23;50.21;98935.02;433543;1268;108811;-41
2022/07/28 22:26:33;;;;;;;7.10;3.20;;;;;;;17.23;49.92;98935.29;434139;1267;97974;-41
2022/07/28 22:36:40;;;;;;;4.30;3.10;;;;;;;17.26;49.89;98936.26;433630;1267;111050;-41
2022/07/28 22:46:47;;;;;;;7.30;2.60;;;;;;;17.24;49.81;98940.86;433528;1269;108880;-41
2022/07/28 23:07:01;;;;;;;10.80;3.30;;;;;;;17.04;50.12;98943.34;433886;1267;97516;-41
2022/07/28 23:17:08;;;;;;;5.80;3.00;;;;;;;16.96;50.17;98948.65;433467;1269;111115;-41
2022/07/28 23:27:16;;;;;;;5.00;3.10;;;;;;;16.91;50.37;98946.30;433795;1267;108764;-40
2022/07/28 23:37:23;;;;;;;9.40;3.70;;;;;;;16.82;50.65;98951.02;433919;1267;97894;-41
2022/07/28 23:47:33;;;;;;;7.40;3.20;;;;;;;16.70;50.88;98957.10;433546;1267;98570;-41
2022/07/28 23:57:40;;;;;;;8.20;4.30;;;;;;;16.60;51.25;98957.86;433660;1267;111065;-41
